Latest Weather Observations for Kununurra Airport

IDD60801

Issued at 5:31 am CST Tuesday 13 November 2018 (issued every 10 minutes, with the page automatically refreshed every 10 minutes)

About weather observations | Map of weather stations | Latest weather observations for NT | Other Formats
Station Details ID: 002056 Name: KUNUNURRA AERO Lat: -15.78 Lon: 128.71 Height: 44.0 m
Data from the previous 72 hours. | See also: Recent months at Kununurra Airport
Date/Time
CST
Temp
°C
App
Temp
°C
Dew
Point
°C
Rel
Hum
%
Delta-T
°C
Wind Press
QNH
hPa
Press
MSL
hPa
Rain since
9am
mm
Dir  Spd
km/h
Gust
km/h
Spd
kts
Gust
kts
13/05:30am 25.7 31.8 24.5 93 0.8 CALM 0 0 0 0 1007.2 1006.8 0.0
13/05:22am 25.9 32.3 24.9 94 0.7 CALM 0 0 0 0 1007.1 1006.7 0.0
13/05:03am 25.6 31.7 24.4 93 0.8 CALM 0 0 0 0 1007.1 1006.7 0.0
13/05:00am 25.6 31.7 24.4 93 0.8 CALM 0 0 0 0 1007.1 1006.7 0.0
13/04:30am 26.1 30.8 24.9 93 0.8 N 9 11 5 6 1006.9 1006.5 0.0
13/04:00am 26.2 31.0 24.4 90 1.2 N 7 9 4 5 1006.7 1006.3 0.0
13/03:30am 26.4 31.0 24.2 88 1.5 N 7 9 4 5 1006.7 1006.3 0.0
13/03:00am 26.4 30.2 24.1 87 1.6 N 11 15 6 8 1006.6 1006.2 0.0
13/02:30am 26.5 30.5 23.8 85 1.9 N 9 11 5 6 1006.5 1006.1 0.0
13/02:00am 26.9 31.3 23.8 83 2.1 N 7 9 4 5 1006.7 1006.3 0.0
13/01:30am 27.0 32.0 23.9 83 2.1 NNW 4 7 2 4 1006.9 1006.5 0.0
13/01:00am 27.3 31.3 23.7 81 2.5 N 9 11 5 6 1007.0 1006.6 0.0
13/12:30am 27.2 30.0 23.0 78 2.9 NNE 13 15 7 8 1007.2 1006.8 0.0
13/12:00am 27.6 30.1 22.5 74 3.5 NNE 13 15 7 8 1007.6 1007.3 0.0
 
Date/Time
CST
Temp
°C
App
Temp
°C
Dew
Point
°C
Rel
Hum
%
Delta-T
°C
Wind Press
QNH
hPa
Press
MSL
hPa
Rain since
9am
mm
Dir  Spd
km/h
Gust
km/h
Spd
kts
Gust
kts
12/11:30pm 27.8 30.1 22.1 71 3.8 NNE 13 15 7 8 1007.8 1007.5 0.0
12/11:00pm 28.3 30.6 21.3 65 4.7 NNE 11 13 6 7 1007.9 1007.6 0.0
12/10:30pm 29.0 31.1 21.0 62 5.3 N 11 13 6 7 1007.7 1007.4 0.0
12/10:00pm 29.8 32.0 21.2 60 5.8 N 11 13 6 7 1007.6 1007.3 0.0
12/09:30pm 30.9 32.7 21.1 56 6.6 N 13 19 7 10 1007.4 1007.0 0.0
12/09:00pm 31.8 32.1 20.7 51 7.4 N 20 26 11 14 1007.0 1006.6 0.0
12/08:30pm 32.6 32.6 19.8 46 8.5 N 19 26 10 14 1006.6 1006.2 0.0
12/08:00pm 33.4 33.1 19.5 44 9.2 N 20 24 11 13 1006.1 1005.7 0.0
12/07:30pm 34.0 33.8 19.3 42 9.7 N 19 24 10 13 1005.5 1005.1 0.0
12/07:00pm 34.6 34.8 19.4 40 10.1 N 17 24 9 13 1005.1 1004.7 0.0
12/06:30pm 36.1 34.5 19.1 36 11.3 NNE 26 35 14 19 1004.7 1004.3 0.0
12/06:00pm 37.4 36.2 19.3 34 12.1 NNE 24 35 13 19 1004.2 1003.8 0.0
12/05:30pm 39.9 38.4 9.3 16 18.0 N 7 11 4 6 1003.9 1003.5 0.0
12/05:00pm 40.7 39.3 9.0 15 18.5 SE 6 9 3 5 1004.0 1003.6 0.0
12/04:30pm 40.4 39.0 9.7 16 18.2 E 7 15 4 8 1004.1 1003.7 0.0
12/04:00pm 40.0 38.4 10.3 17 17.6 N 9 17 5 9 1004.4 1004.0 0.0
12/03:30pm 39.9 37.5 10.2 17 17.7 NNE 13 17 7 9 1004.7 1004.3 0.0
12/03:12pm 39.8 37.4 12.6 20 16.7 NNE 17 20 9 11 1005.0 1004.6 0.0
12/03:02pm 40.2 38.4 12.1 19 17.1 NE 13 20 7 11 1005.2 1004.8 0.0
12/03:00pm 40.0 38.2 12.0 19 17.0 NNE 13 20 7 11 1005.2 1004.8 0.0
12/02:30pm 39.4 37.9 13.0 21 16.3 NNE 13 20 7 11 1005.7 1005.3 0.0
12/02:00pm 39.6 36.7 12.4 20 16.6 NNE 19 26 10 14 1006.2 1005.8 0.0
12/01:30pm 38.7 39.0 16.9 27 14.1 N 11 19 6 10 1006.8 1006.4 0.0
12/01:00pm 38.6 37.2 14.4 24 15.1 NE 15 22 8 12 1007.3 1006.9 0.0
12/12:30pm 37.2 39.0 19.6 35 11.8 NNE 9 17 5 9 1007.9 1007.6 0.0
12/12:00pm 37.2 37.6 18.2 32 12.5 NNE 13 20 7 11 1008.5 1008.2 0.0
12/11:30am 36.5 38.7 21.9 42 10.0 SSE 13 22 7 12 1008.9 1008.6 0.0
12/11:00am 35.4 38.8 22.0 45 9.2 NW 7 15 4 8 1009.4 1009.1 0.0
12/10:30am 33.5 37.3 23.5 55 7.0 SSE 9 13 5 7 1009.8 1009.5 0.0
12/10:00am 33.3 37.4 23.9 58 6.6 WSW 9 17 5 9 1010.0 1009.7 0.0
12/09:30am 31.3 35.9 24.2 66 5.0 N 7 11 4 6 1010.3 1010.0 0.0
12/09:00am 30.7 35.8 24.6 70 4.3 NNE 6 11 3 6 1010.3 1010.0 0.0
12/08:49am 30.1 35.4 25.2 75 3.5 NNE 7 11 4 6 1010.3 1010.0 0.0
12/08:32am 29.0 34.1 24.6 77 3.1 NNE 6 11 3 6 1010.4 1010.1 0.0
12/08:30am 29.4 34.8 25.2 78 3.0 NNE 6 11 3 6 1010.4 1010.1 0.0
12/08:04am 28.1 33.2 24.9 83 2.2 SSE 7 9 4 5 1010.2 1009.9 0.0
12/08:00am 27.9 32.8 24.7 83 2.2 SSE 7 9 4 5 1010.2 1009.9 0.0
12/07:45am 27.6 32.9 25.0 86 1.8 SSE 6 7 3 4 1010.1 1009.8 0.0
12/07:34am 27.0 33.0 24.8 88 1.5 SSE 2 6 1 3 1010.0 1009.7 0.0
12/07:30am 27.0 33.0 24.8 88 1.5 SSE 2 6 1 3 1010.0 1009.7 0.0
12/07:00am 25.4 31.5 24.5 95 0.6 CALM 0 0 0 0 1009.7 1009.4 0.0
12/06:57am 25.3 31.4 24.4 95 0.6 CALM 0 0 0 0 1009.6 1009.3 0.0
12/06:37am 24.3 29.8 23.4 95 0.6 CALM 0 0 0 0 1009.3 1009.0 0.0
12/06:30am 24.2 29.9 23.7 97 0.3 CALM 0 0 0 0 1009.3 1009.0 0.0
12/06:22am 24.5 30.5 24.3 99 0.1 CALM 0 0 0 0 1009.2 1008.9 0.0
12/06:00am 24.2 29.6 23.3 95 0.6 CALM 0 0 0 0 1009.0 1008.7 0.0
12/05:30am 24.8 30.9 24.5 98 0.2 CALM 0 0 0 0 1008.6 1008.3 0.0
12/05:11am 24.5 30.1 23.6 95 0.6 CALM 0 0 0 0 1008.3 1008.0 0.0
12/05:00am 24.8 30.6 24.5 98 0.2 WSW 2 6 1 3 1008.2 1007.9 0.0
12/04:52am 24.7 29.3 23.8 95 0.6 WSW 6 6 3 3 1008.0 1007.7 0.0
12/04:30am 24.7 29.2 23.7 94 0.7 WSW 6 7 3 4 1007.8 1007.5 0.0
12/04:00am 25.1 30.8 23.7 92 1.0 CALM 0 0 0 0 1007.7 1007.4 0.0
12/03:30am 25.1 30.8 23.7 92 1.0 CALM 0 2 0 1 1007.6 1007.3 0.0
12/03:23am 25.3 30.2 23.7 91 1.1 N 4 9 2 5 1007.6 1007.3 0.0
12/03:03am 25.7 29.9 24.1 91 1.1 NNE 9 11 5 6 1007.6 1007.3 0.0
12/03:00am 25.7 29.4 23.9 90 1.2 NNE 11 11 6 6 1007.6 1007.3 0.0
12/02:30am 25.9 29.2 23.9 89 1.4 NNE 13 15 7 8 1007.7 1007.4 0.0
12/02:00am 25.7 29.3 23.7 89 1.4 NE 11 11 6 6 1007.8 1007.5 0.0
12/01:30am 26.0 29.8 23.5 86 1.7 NNE 9 11 5 6 1008.1 1007.8 0.0
12/01:00am 26.5 30.9 23.4 83 2.1 NW 6 7 3 4 1008.4 1008.1 0.0
12/12:45am 26.5 30.7 23.2 82 2.2 NW 6 9 3 5 1008.4 1008.1 0.0
12/12:30am 26.8 30.6 23.5 82 2.3 NNE 9 13 5 7 1008.4 1008.1 0.0
12/12:28am 26.8 30.2 23.3 81 2.4 NNE 11 13 6 7 1008.4 1008.1 0.0
12/12:19am 26.9 29.9 23.4 81 2.4 NNE 13 15 7 8 1008.4 1008.1 0.0
12/12:05am 27.1 30.0 23.1 79 2.7 NNE 13 15 7 8 1008.4 1008.1 0.0
12/12:00am 27.2 30.0 23.0 78 2.9 NNE 13 15 7 8 1008.5 1008.2 0.0
 
Date/Time
CST
Temp
°C
App
Temp
°C
Dew
Point
°C
Rel
Hum
%
Delta-T
°C
Wind Press
QNH
hPa
Press
MSL
hPa
Rain since
9am
mm
Dir  Spd
km/h
Gust
km/h
Spd
kts
Gust
kts
11/11:30pm 28.2 30.8 22.7 72 3.7 N 13 17 7 9 1008.6 1008.3 0.0
11/11:18pm 28.6 30.8 22.6 70 4.1 N 15 19 8 10 1008.6 1008.3 0.0
11/11:03pm 28.8 30.8 22.3 68 4.4 N 15 20 8 11 1008.7 1008.4 0.0
11/11:00pm 28.8 30.8 22.3 68 4.4 N 15 20 8 11 1008.7 1008.4 0.0
11/10:57pm 28.9 31.0 22.4 68 4.4 N 15 19 8 10 1008.7 1008.4 0.0
11/10:46pm 28.9 30.9 22.2 67 4.5 N 15 17 8 9 1008.8 1008.5 0.0
11/10:30pm 29.0 31.1 21.7 64 4.9 N 13 17 7 9 1008.7 1008.4 0.0
11/10:00pm 29.3 30.9 20.7 59 5.7 N 13 15 7 8 1008.6 1008.3 0.0
11/09:30pm 29.9 30.9 20.2 56 6.4 N 15 17 8 9 1008.5 1008.2 0.0
11/09:00pm 30.3 31.4 19.6 52 7.0 N 13 15 7 8 1008.0 1007.7 0.0
11/08:30pm 30.6 31.3 19.6 51 7.2 N 15 17 8 9 1007.5 1007.1 0.0
11/08:00pm 32.6 33.5 18.4 43 9.2 NNW 11 13 6 7 1007.0 1006.6 0.0
11/07:30pm 34.0 34.2 17.7 38 10.5 NNW 13 15 7 8 1006.5 1006.1 0.0
11/07:00pm 35.1 34.0 17.3 34 11.5 NNW 19 24 10 13 1006.2 1005.8 0.0
11/06:58pm 35.2 34.1 17.4 34 11.5 NNW 19 28 10 15 1006.2 1005.8 0.0
11/06:47pm 35.5 33.8 17.2 33 11.8 NNW 22 30 12 16 1006.1 1005.7 0.0
11/06:30pm 36.2 34.2 16.4 31 12.7 NNW 22 30 12 16 1005.7 1005.3 0.0
11/06:00pm 39.9 38.6 9.3 16 17.9 SSW 6 9 3 5 1005.2 1004.8 0.0
11/05:30pm 39.6 37.5 8.1 15 18.1 SSW 9 17 5 9 1004.8 1004.4 0.0
11/05:00pm 40.7 39.3 9.0 15 18.5 SSW 6 9 3 5 1004.7 1004.3 0.0
11/04:30pm 40.4 38.8 7.8 14 18.8 NW 6 9 3 5 1004.9 1004.5 0.0
11/04:00pm 39.9 37.4 8.4 15 18.2 NNW 11 22 6 12 1005.2 1004.8 0.0
11/03:30pm 40.0 37.2 5.2 12 19.2 S 9 15 5 8 1005.4 1005.0 0.0
11/03:00pm 40.1 37.5 4.0 11 19.6 NNW 7 9 4 5 1005.7 1005.3 0.0
11/02:30pm 40.1 36.3 4.0 11 19.6 ESE 13 19 7 10 1006.0 1005.6 0.0
11/02:00pm 39.5 35.8 2.2 10 19.6 E 11 22 6 12 1006.4 1006.0 0.0
11/01:30pm 39.4 35.3 2.2 10 19.6 ESE 13 20 7 11 1007.0 1006.6 0.0
11/01:00pm 39.3 34.3 3.4 11 19.2 NNE 19 24 10 13 1007.4 1007.0 0.0
11/12:30pm 38.3 34.2 6.1 14 17.9 E 17 35 9 19 1007.9 1007.6 0.0
11/12:00pm 37.5 34.1 9.2 18 16.4 NE 17 26 9 14 1008.3 1008.0 0.0
11/11:30am 37.0 34.7 11.8 22 15.1 ENE 15 24 8 13 1009.0 1008.7 0.0
11/11:00am 36.9 33.4 11.0 21 15.3 NE 20 32 11 17 1009.5 1009.2 0.0
11/10:30am 37.1 33.5 10.4 20 15.7 NE 20 33 11 18 1009.7 1009.4 0.0
11/10:00am 33.6 34.4 17.3 37 10.5 S 9 13 5 7 1010.0 1009.7 0.0
11/09:30am 33.1 37.6 23.7 57 6.6 NE 6 13 3 7 1010.1 1009.8 0.0
11/09:00am 31.3 35.3 23.7 64 5.3 NNE 9 11 5 6 1010.2 1009.9 0.0
11/08:47am 30.6 35.1 24.0 68 4.6 NNE 7 11 4 6 1010.2 1009.9 0.0
11/08:30am 30.3 36.0 23.7 68 4.6 CALM 0 6 0 3 1010.0 1009.7 0.0
11/08:00am 29.3 34.1 24.2 74 3.5 ESE 6 9 3 5 1009.9 1009.6 0.0
11/07:30am 27.7 33.5 23.9 80 2.6 CALM 0 6 0 3 1009.6 1009.3 0.0
11/07:00am 26.2 31.0 24.2 89 1.4 SE 6 7 3 4 1009.2 1008.9 0.0
11/06:52am 25.8 30.7 24.4 92 1.0 SSE 6 7 3 4 1009.1 1008.8 0.0
11/06:41am 24.9 30.0 24.0 95 0.6 S 4 6 2 3 1008.9 1008.6 0.0
11/06:32am 24.5 29.7 23.6 95 0.6 S 2 6 1 3 1008.7 1008.4 0.0
11/06:30am 24.4 30.1 23.7 96 0.5 CALM 0 6 0 3 1008.7 1008.4 0.0
11/06:00am 24.4 30.3 24.1 98 0.2 CALM 0 6 0 3 1008.5 1008.2 0.0
11/05:57am 24.4 30.3 24.1 98 0.2 CALM 0 0 0 0 1008.5 1008.2 0.0
11/05:30am 24.4 29.5 23.4 94 0.7 ESE 2 6 1 3 1008.3 1008.0 0.0
11/05:00am 24.8 28.8 22.7 88 1.4 SE 6 7 3 4 1008.1 1007.8 0.0
11/04:54am 25.5 30.2 23.9 91 1.1 ESE 6 7 3 4 1008.0 1007.7 0.0
11/04:36am 25.2 31.0 24.0 93 0.8 CALM 0 0 0 0 1008.0 1007.7 0.0
11/04:30am 24.8 30.4 23.6 93 0.8 CALM 0 0 0 0 1008.1 1007.8 0.0
11/04:14am 25.1 30.7 23.5 91 1.1 CALM 0 0 0 0 1007.9 1007.6 0.0
11/04:03am 24.9 30.5 23.5 92 1.0 CALM 0 6 0 3 1007.7 1007.4 0.0
11/04:00am 24.7 29.6 23.1 91 1.1 ENE 2 6 1 3 1007.6 1007.3 0.0
11/03:37am 25.4 30.2 24.2 93 0.8 ESE 6 7 3 4 1007.6 1007.3 0.0
11/03:30am 25.0 29.4 23.4 91 1.1 W 6 7 3 4 1007.6 1007.3 0.0
11/03:19am 25.1 30.5 23.3 90 1.2 CALM 0 0 0 0 1007.6 1007.3 0.0
11/03:00am 25.5 30.8 23.0 86 1.7 CALM 0 0 0 0 1007.5 1007.1 0.0
11/02:30am 26.1 31.0 23.6 86 1.7 WNW 4 6 2 3 1007.6 1007.3 0.0
11/02:07am 26.1 30.7 23.2 84 2.0 WNW 4 7 2 4 1007.6 1007.3 0.0
11/02:00am 26.2 31.6 23.3 84 2.0 CALM 0 0 0 0 1007.6 1007.3 0.0
11/01:52am 26.1 31.6 23.4 85 1.8 CALM 0 0 0 0 1007.7 1007.4 0.0
11/01:30am 26.5 32.1 23.6 84 2.0 CALM 0 0 0 0 1008.0 1007.7 0.0
11/01:00am 26.8 31.3 23.9 84 2.0 WSW 7 7 4 4 1008.0 1007.7 0.0
11/12:30am 27.4 32.8 23.2 78 2.9 CALM 0 0 0 0 1008.0 1007.7 0.0
11/12:00am 28.6 32.6 23.7 75 3.4 E 9 11 5 6 1008.1 1007.8 0.0
 
Date/Time
CST
Temp
°C
App
Temp
°C
Dew
Point
°C
Rel
Hum
%
Delta-T
°C
Wind Press
QNH
hPa
Press
MSL
hPa
Rain since
9am
mm
Dir  Spd
km/h
Gust
km/h
Spd
kts
Gust
kts
10/11:30pm 28.7 33.1 23.8 75 3.4 E 7 11 4 6 1008.2 1007.9 0.0
10/11:00pm 28.5 32.9 23.4 74 3.5 N 6 7 3 4 1008.0 1007.7 0.0
10/10:30pm 29.1 32.8 23.3 71 4.0 N 9 11 5 6 1008.0 1007.7 0.0
10/10:00pm 29.2 31.9 22.9 69 4.3 N 13 15 7 8 1007.8 1007.5 0.0
10/09:30pm 29.6 31.8 22.6 66 4.8 NNE 15 17 8 9 1007.5 1007.1 0.0
10/09:14pm 29.6 32.0 22.3 65 5.0 NNE 13 15 7 8 1007.5 1007.1 0.0
10/09:00pm 29.8 32.6 22.3 64 5.1 N 11 13 6 7 1007.4 1007.0 0.0
10/08:46pm 30.8 33.5 22.1 59 5.9 N 11 15 6 8 1007.1 1006.7 0.0
10/08:30pm 30.8 33.4 21.9 59 6.0 N 11 13 6 7 1006.9 1006.5 0.0
10/08:00pm 32.3 33.8 21.2 52 7.5 NNW 15 17 8 9 1006.4 1006.0 0.0
10/07:52pm 32.5 34.2 21.0 50 7.7 NNW 13 17 7 9 1006.3 1005.9 0.0
10/07:30pm 33.0 34.0 20.2 47 8.5 N 15 20 8 11 1006.0 1005.6 0.0
10/07:00pm 36.1 36.1 14.1 26 13.6 SE 7 9 4 5 1005.0 1004.6 0.0
10/06:30pm 37.9 37.5 12.5 22 15.5 S 6 7 3 4 1004.6 1004.2 0.0
10/06:00pm 39.6 38.9 10.0 17 17.5 SE 4 9 2 5 1004.4 1004.0 0.0
10/05:30pm 39.8 37.9 9.2 16 17.9 S 9 11 5 6 1004.2 1003.8 0.0
10/05:00pm 40.1 37.7 8.5 15 18.3 S 11 17 6 9 1004.2 1003.8 0.0
10/04:30pm 40.3 37.7 7.7 14 18.7 SE 11 17 6 9 1004.3 1003.9 0.0
10/04:00pm 40.2 36.7 8.6 15 18.3 ESE 17 24 9 13 1004.5 1004.1 0.0
10/03:30pm 40.2 38.2 8.6 15 18.4 SSE 9 15 5 8 1004.8 1004.4 0.0
10/03:28pm 39.6 37.5 8.1 15 18.1 SSE 9 15 5 8 1004.8 1004.4 0.0
10/03:18pm 39.8 37.3 8.3 15 18.2 ESE 11 20 6 11 1005.0 1004.6 0.0
10/03:00pm 39.8 36.6 8.3 15 18.2 SSE 15 22 8 12 1005.1 1004.7 0.0
10/02:30pm 40.0 37.4 9.4 16 18.0 S 13 17 7 9 1005.6 1005.2 0.0
10/02:00pm 40.1 36.2 8.5 15 18.3 ESE 19 28 10 15 1006.0 1005.6 0.0
10/01:30pm 39.5 35.8 8.1 15 18.1 ESE 17 32 9 17 1006.6 1006.2 0.0
10/01:00pm 39.3 36.3 7.9 15 18.0 ESE 13 24 7 13 1007.2 1006.8 0.0
10/12:30pm 38.6 34.4 7.4 15 17.7 ESE 19 28 10 15 1007.8 1007.5 0.0
10/12:00pm 38.6 33.7 8.3 16 17.4 ESE 24 32 13 17 1008.2 1007.9 0.0
10/11:30am 38.8 34.9 8.5 16 17.5 E 19 30 10 16 1008.5 1008.2 0.0
10/11:00am 37.6 32.8 7.5 16 17.0 E 22 33 12 18 1009.1 1008.8 0.0
10/10:30am 36.9 32.6 7.8 17 16.5 ENE 20 28 11 15 1009.5 1009.2 0.0
10/10:00am 35.7 31.8 8.5 19 15.4 ESE 19 26 10 14 1009.7 1009.4 0.0
10/09:30am 35.3 30.7 6.6 17 15.8 ESE 20 28 11 15 1009.8 1009.5 0.0
10/09:00am 34.2 31.3 8.0 20 14.7 SE 13 22 7 12 1009.7 1009.4 0.0
10/08:30am 32.5 31.0 10.5 26 12.7 SE 9 13 5 7 1009.7 1009.4 0.0
10/08:00am 30.8 29.8 12.2 32 10.9 SSE 9 11 5 6 1009.5 1009.2 0.0
10/07:30am 27.6 28.9 17.2 53 6.5 SW 6 7 3 4 1009.4 1009.1 0.0

Other Formats:

Comma delimited format used in spreadsheet applications
http://www.bom.gov.au/fwo/IDD60801/IDD60801.94216.axf

JavaScript Object Notation format (JSON) in row-major order
http://www.bom.gov.au/fwo/IDD60801/IDD60801.94216.json